Pottersdale, Pennsylvania
Current Conditions -  °F | °C
As of 11:54 PM on Friday 24 Oct 2014 (Local Time) from KFIG Reporting Station
Clear Clear  
Wind Chill: 40°   Ceiling: Unl
Heat Index: 43°   Visibility: 10mi
Dew Point: 38°   Wind: 5mph
Humidity: 82%   Direction: 220°SW
Pressure: 29.98"   Gusts: NA
Location:  41.17°N, 78.06°W
Report Text: KFIG 250354Z AUTO 22004KT 10SM CLR 06/03 A2998 RMK AO2 SLP157 T00610033
Loading
Personal Weather Stations






























Interactive Weather Map
Tropical Storm Tracking
New forecast layout! Learn more

10-Day Weather Forecast

Advertisements
Track Severe Weather on mobile